createdAt,value
2022-10-24T00:00:04.338Z,100455.16
2022-10-24T00:02:30.855Z,100450.34
2022-10-24T00:04:57.310Z,100452.75
2022-10-24T00:07:23.752Z,100452.38
2022-10-24T00:09:50.146Z,100455.91
2022-10-24T00:12:19.608Z,100455.16
2022-10-24T00:14:46.709Z,100459.63
2022-10-24T00:17:13.132Z,100458.13
2022-10-24T00:19:39.516Z,100458.50
2022-10-24T00:22:06.044Z,100468.63
2022-10-24T00:24:32.460Z,100468.34
2022-10-24T00:26:58.881Z,100466.50
2022-10-24T00:29:25.281Z,100463.78
2022-10-24T00:31:51.735Z,100467.78
2022-10-24T00:34:18.373Z,100472.22
2022-10-24T00:36:44.813Z,100461.53
2022-10-24T00:39:11.967Z,100470.53
2022-10-24T00:41:44.885Z,100459.47
2022-10-24T00:44:38.503Z,100466.91
2022-10-24T00:47:14.621Z,100457.16
2022-10-24T00:49:46.473Z,100456.84
2022-10-24T00:52:15.625Z,100448.03
2022-10-24T00:54:42.334Z,100449.91
2022-10-24T00:57:13.797Z,100444.78
2022-10-24T00:59:42.669Z,100457.72
2022-10-24T01:02:10.203Z,100451.69
2022-10-24T01:04:36.836Z,100446.13
2022-10-24T01:07:17.913Z,100457.56
2022-10-24T01:10:22.136Z,100449.50
2022-10-24T01:13:12.509Z,100458.75
2022-10-24T01:15:45.010Z,100449.19
2022-10-24T01:18:23.865Z,100447.75
2022-10-24T01:21:11.431Z,100445.44
2022-10-24T01:24:15.567Z,100445.06
2022-10-24T01:27:03.201Z,100436.63
2022-10-24T01:29:53.078Z,100449.34
2022-10-24T01:32:34.658Z,100442.28
2022-10-24T01:35:07.742Z,100441.69
2022-10-24T01:37:39.670Z,100430.63
2022-10-24T01:40:13.747Z,100420.44
2022-10-24T01:42:40.920Z,100421.09
2022-10-24T01:45:08.840Z,100417.25
2022-10-24T01:47:40.419Z,100431.00
2022-10-24T01:50:10.458Z,100426.78
2022-10-24T01:52:39.639Z,100419.94
2022-10-24T01:55:06.906Z,100420.28
2022-10-24T01:57:34.252Z,100417.13
2022-10-24T02:00:01.043Z,100414.56
2022-10-24T02:02:40.071Z,100407.34
2022-10-24T02:05:14.470Z,100411.88
2022-10-24T02:07:43.098Z,100417.59
2022-10-24T02:10:13.367Z,100402.09
2022-10-24T02:12:48.375Z,100402.50
2022-10-24T02:15:20.855Z,100402.44
2022-10-24T02:17:47.496Z,100399.91
2022-10-24T02:20:14.221Z,100402.50
2022-10-24T02:22:40.540Z,100395.34
2022-10-24T02:25:13.675Z,100390.06
2022-10-24T02:27:46.087Z,100390.66
2022-10-24T02:30:16.431Z,100378.69
2022-10-24T02:32:49.379Z,100372.41
2022-10-24T02:35:18.285Z,100361.13
2022-10-24T02:37:48.259Z,100377.50
2022-10-24T02:40:16.901Z,100380.25
2022-10-24T02:42:44.624Z,100371.56
2022-10-24T02:45:12.760Z,100369.31
2022-10-24T02:47:40.696Z,100363.16
2022-10-24T02:50:07.800Z,100356.06
2022-10-24T02:52:34.912Z,100363.16
2022-10-24T02:55:01.404Z,100363.81
2022-10-24T02:57:28.202Z,100349.31
2022-10-24T02:59:54.598Z,100360.91
2022-10-24T03:02:21.037Z,100353.34
2022-10-24T03:04:47.437Z,100350.28
2022-10-24T03:07:13.883Z,100348.22
2022-10-24T03:09:40.313Z,100341.03
2022-10-24T03:12:06.990Z,100337.16
2022-10-24T03:14:33.635Z,100336.91
2022-10-24T03:17:00.114Z,100323.53
2022-10-24T03:19:26.527Z,100317.16
2022-10-24T03:21:52.947Z,100341.97
2022-10-24T03:24:26.939Z,100332.16
2022-10-24T03:27:04.098Z,100340.09
2022-10-24T03:29:30.483Z,100337.53
2022-10-24T03:31:56.897Z,100324.84
2022-10-24T03:34:23.422Z,100322.91
2022-10-24T03:36:49.854Z,100322.16
2022-10-24T03:39:16.291Z,100309.19
2022-10-24T03:41:42.721Z,100315.50
2022-10-24T03:44:09.393Z,100309.69
2022-10-24T03:46:35.851Z,100309.31
2022-10-24T03:51:33.753Z,100308.06
2022-10-24T03:54:00.151Z,100316.41
2022-10-24T03:56:26.549Z,100312.22
2022-10-24T03:58:53.007Z,100318.34
2022-10-24T04:01:19.755Z,100326.47
2022-10-24T04:03:46.491Z,100322.34
2022-10-24T04:06:13.546Z,100303.25
2022-10-24T04:08:40.040Z,100312.53
2022-10-24T04:11:07.310Z,100313.03
2022-10-24T04:13:33.886Z,100309.84
2022-10-24T04:16:00.278Z,100314.81
2022-10-24T04:18:26.709Z,100317.38
2022-10-24T04:20:53.151Z,100324.53
2022-10-24T04:23:19.746Z,100311.59
2022-10-24T04:25:47.310Z,100318.88
2022-10-24T04:28:13.710Z,100322.75
2022-10-24T04:30:40.145Z,100310.44
2022-10-24T04:33:06.576Z,100327.38
2022-10-24T04:35:33.026Z,100317.44
2022-10-24T04:37:59.471Z,100327.72
2022-10-24T04:40:25.918Z,100318.75
2022-10-24T04:42:52.358Z,100316.97
2022-10-24T04:45:18.873Z,100308.06
2022-10-24T04:47:45.463Z,100306.56
2022-10-24T04:50:12.142Z,100318.63
2022-10-24T04:52:38.698Z,100311.34
2022-10-24T04:55:05.446Z,100311.25
2022-10-24T04:57:31.860Z,100312.63
2022-10-24T04:59:58.415Z,100309.63
2022-10-24T05:02:24.983Z,100307.41
2022-10-24T05:04:51.716Z,100307.09
2022-10-24T05:07:20.687Z,100314.13
2022-10-24T05:09:47.691Z,100321.59
2022-10-24T05:12:14.154Z,100312.66
2022-10-24T05:14:40.610Z,100318.94
2022-10-24T05:17:07.054Z,100326.09
2022-10-24T05:19:33.504Z,100318.94
2022-10-24T05:21:59.923Z,100300.22
2022-10-24T05:24:26.310Z,100310.03
2022-10-24T05:26:52.743Z,100320.91
2022-10-24T05:29:19.168Z,100327.28
2022-10-24T05:31:45.565Z,100315.97
2022-10-24T05:34:12.211Z,100316.16
2022-10-24T05:36:38.680Z,100313.31
2022-10-24T05:39:05.489Z,100310.94
2022-10-24T05:41:32.669Z,100308.13
2022-10-24T05:43:59.146Z,100303.47
2022-10-24T05:46:25.703Z,100302.41
2022-10-24T05:48:52.096Z,100292.41
2022-10-24T05:51:18.537Z,100286.66
2022-10-24T05:53:45.325Z,100296.63
2022-10-24T05:56:11.729Z,100293.66
2022-10-24T05:58:38.244Z,100296.19
2022-10-24T06:01:04.966Z,100294.88
2022-10-24T06:03:31.486Z,100304.72
2022-10-24T06:05:57.945Z,100299.81
2022-10-24T06:08:24.358Z,100291.47
2022-10-24T06:10:51.411Z,100301.44
2022-10-24T06:13:18.310Z,100302.94
2022-10-24T06:15:44.745Z,100297.25
2022-10-24T06:18:11.472Z,100306.19
2022-10-24T06:20:38.302Z,100307.72
2022-10-24T06:23:04.821Z,100305.03
2022-10-24T06:25:31.282Z,100310.41
2022-10-24T06:27:57.892Z,100300.25
2022-10-24T06:30:24.832Z,100300.53
2022-10-24T06:32:51.472Z,100310.09
2022-10-24T06:35:19.169Z,100306.66
2022-10-24T06:37:48.046Z,100316.03
2022-10-24T06:40:15.397Z,100318.59
2022-10-24T06:42:41.833Z,100312.31
2022-10-24T06:45:08.551Z,100313.69
2022-10-24T06:47:35.174Z,100320.53
2022-10-24T06:50:01.717Z,100319.66
2022-10-24T06:52:28.225Z,100319.94
2022-10-24T06:54:54.942Z,100325.00
2022-10-24T06:57:21.681Z,100316.03
2022-10-24T06:59:48.102Z,100323.19
2022-10-24T07:02:15.536Z,100326.47
2022-10-24T07:04:42.257Z,100340.59
2022-10-24T07:07:14.537Z,100344.78
2022-10-24T07:09:41.007Z,100345.22
2022-10-24T07:12:07.871Z,100344.94
2022-10-24T07:14:34.264Z,100348.19
2022-10-24T07:17:00.680Z,100356.53
2022-10-24T07:19:27.132Z,100363.78
2022-10-24T07:21:53.747Z,100356.47
2022-10-24T07:24:21.316Z,100370.91
2022-10-24T07:26:47.726Z,100363.59
2022-10-24T07:29:14.188Z,100368.31
2022-10-24T07:31:40.784Z,100373.03
2022-10-24T07:34:08.637Z,100371.53
2022-10-24T07:36:38.903Z,100380.63
2022-10-24T07:39:09.480Z,100377.31
2022-10-24T07:41:38.167Z,100383.66
2022-10-24T07:44:04.619Z,100386.63
2022-10-24T07:46:31.040Z,100377.47
2022-10-24T07:48:57.549Z,100390.00
2022-10-24T07:51:23.992Z,100379.81
2022-10-24T07:53:50.672Z,100381.47
2022-10-24T07:56:18.054Z,100383.78
2022-10-24T07:58:46.083Z,100382.56
2022-10-24T08:01:16.244Z,100378.66
2022-10-24T08:03:42.813Z,100374.03
2022-10-24T08:06:17.762Z,100374.97
2022-10-24T08:08:45.044Z,100384.31
2022-10-24T08:11:21.671Z,100378.94
2022-10-24T08:13:49.445Z,100373.59
2022-10-24T08:16:16.981Z,100378.59
2022-10-24T08:18:43.971Z,100370.28
2022-10-24T08:21:13.927Z,100364.22
2022-10-24T08:23:43.183Z,100361.25
2022-10-24T08:26:23.671Z,100380.78
2022-10-24T08:28:50.773Z,100371.13
2022-10-24T08:31:19.971Z,100366.25
2022-10-24T08:33:47.454Z,100371.09
2022-10-24T08:36:20.545Z,100362.09
2022-10-24T08:38:47.913Z,100354.38
2022-10-24T08:41:25.991Z,100351.31
2022-10-24T08:43:56.915Z,100359.47
2022-10-24T08:46:50.805Z,100350.44
2022-10-24T08:49:38.679Z,100360.00
2022-10-24T08:52:13.325Z,100358.66
2022-10-24T08:54:41.835Z,100360.22
2022-10-24T08:57:26.845Z,100349.81
2022-10-24T08:59:58.291Z,100349.19
2022-10-24T09:02:27.869Z,100354.38
2022-10-24T09:05:04.766Z,100344.63
2022-10-24T09:07:31.544Z,100343.25
2022-10-24T09:10:12.303Z,100356.63
2022-10-24T09:12:40.520Z,100353.75
2022-10-24T09:15:16.636Z,100354.31
2022-10-24T09:17:45.378Z,100362.19
2022-10-24T09:20:24.727Z,100352.19
2022-10-24T09:22:58.146Z,100360.63
2022-10-24T09:25:35.529Z,100358.91
2022-10-24T09:28:06.052Z,100353.34
2022-10-24T09:30:34.281Z,100339.59
2022-10-24T09:33:08.369Z,100365.47
2022-10-24T09:35:35.819Z,100364.31
2022-10-24T09:38:35.705Z,100375.38
2022-10-24T09:41:08.872Z,100363.06
2022-10-24T09:43:44.687Z,100366.78
2022-10-24T09:46:17.605Z,100371.44
2022-10-24T09:48:57.056Z,100370.72
2022-10-24T09:51:33.898Z,100371.41
2022-10-24T09:54:19.442Z,100383.19
2022-10-24T09:56:54.325Z,100371.84
2022-10-24T09:59:46.535Z,100378.31
2022-10-24T10:02:56.231Z,100377.81
2022-10-24T10:05:22.711Z,100386.91
2022-10-24T10:07:50.458Z,100378.03
2022-10-24T10:10:32.145Z,100373.41
2022-10-24T10:13:06.452Z,100384.94
2022-10-24T10:15:46.672Z,100391.34
2022-10-24T10:18:25.051Z,100390.41
2022-10-24T10:21:01.642Z,100400.50
2022-10-24T10:23:45.506Z,100388.16
2022-10-24T10:26:16.138Z,100395.06
2022-10-24T10:28:54.099Z,100388.19
2022-10-24T10:31:47.624Z,100395.81
2022-10-24T10:34:22.209Z,100402.50
2022-10-24T10:37:10.499Z,100392.63
2022-10-24T10:39:51.275Z,100389.16
2022-10-24T10:42:50.898Z,100391.66
2022-10-24T10:45:30.036Z,100390.94
2022-10-24T10:48:13.559Z,100392.88
2022-10-24T10:50:41.087Z,100387.41
2022-10-24T10:53:30.161Z,100399.00
2022-10-24T10:56:31.919Z,100381.28
2022-10-24T10:59:36.450Z,100389.84
2022-10-24T11:02:34.157Z,100395.47
2022-10-24T11:05:22.131Z,100396.31
2022-10-24T11:07:55.631Z,100402.50
2022-10-24T11:10:28.458Z,100400.50
2022-10-24T11:12:55.847Z,100404.19
2022-10-24T11:15:43.861Z,100402.75
2022-10-24T11:18:38.711Z,100411.34
2022-10-24T11:21:10.279Z,100409.34
2022-10-24T11:23:59.785Z,100399.44
2022-10-24T11:26:53.566Z,100416.16
2022-10-24T11:29:33.585Z,100410.25
2022-10-24T11:32:14.997Z,100410.47
2022-10-24T11:35:02.817Z,100404.81
2022-10-24T11:37:39.001Z,100403.91
2022-10-24T11:40:17.743Z,100420.44
2022-10-24T11:43:21.316Z,100417.22
2022-10-24T11:46:00.144Z,100411.03
2022-10-24T11:48:38.945Z,100424.53
2022-10-24T11:51:13.857Z,100422.63
2022-10-24T11:53:51.174Z,100421.19
2022-10-24T11:56:41.140Z,100417.72
2022-10-24T11:59:13.125Z,100428.84
2022-10-24T12:02:02.823Z,100430.06
2022-10-24T12:04:32.325Z,100433.00
2022-10-24T12:07:40.142Z,100433.47
2022-10-24T12:10:28.409Z,100430.03
2022-10-24T12:12:54.865Z,100423.16
2022-10-24T12:15:32.200Z,100436.19
2022-10-24T12:18:04.540Z,100434.00
2022-10-24T12:20:31.780Z,100432.97
2022-10-24T12:23:00.114Z,100431.97
2022-10-24T12:25:32.134Z,100447.00
2022-10-24T12:28:08.665Z,100445.53
2022-10-24T12:30:36.622Z,100426.06
2022-10-24T12:33:03.202Z,100432.50
2022-10-24T12:35:34.131Z,100432.00
2022-10-24T12:38:02.002Z,100436.44
2022-10-24T12:40:52.285Z,100440.84
2022-10-24T12:43:44.574Z,100451.16
2022-10-24T12:46:22.596Z,100453.78
2022-10-24T12:48:58.810Z,100449.91
2022-10-24T12:51:33.929Z,100442.75
2022-10-24T12:54:08.014Z,100448.16
2022-10-24T12:56:34.604Z,100450.25
2022-10-24T12:59:16.884Z,100453.41
2022-10-24T13:01:43.861Z,100454.16
2022-10-24T13:04:31.389Z,100460.31
2022-10-24T13:07:27.120Z,100464.50
2022-10-24T13:10:30.855Z,100459.34
2022-10-24T13:15:58.798Z,100450.91
2022-10-24T13:18:55.566Z,100450.69
2022-10-24T13:21:50.423Z,100462.03
2022-10-24T13:24:16.834Z,100465.03
2022-10-24T13:26:51.268Z,100462.34
2022-10-24T13:29:23.889Z,100464.06
2022-10-24T13:32:18.662Z,100459.38
2022-10-24T13:34:50.312Z,100463.06
2022-10-24T13:37:23.840Z,100463.81
2022-10-24T13:39:57.463Z,100461.81
2022-10-24T13:42:39.784Z,100464.78
2022-10-24T13:45:33.387Z,100458.84
2022-10-24T13:48:05.708Z,100464.25
2022-10-24T13:50:34.657Z,100481.75
2022-10-24T13:53:05.647Z,100476.13
2022-10-24T13:55:37.282Z,100477.31
2022-10-24T13:58:06.619Z,100487.66
2022-10-24T14:00:37.393Z,100484.72
2022-10-24T14:03:05.776Z,100481.25
2022-10-24T14:05:38.382Z,100483.75
2022-10-24T14:08:06.716Z,100484.94
2022-10-24T14:10:33.300Z,100481.25
2022-10-24T14:13:00.352Z,100478.03
2022-10-24T14:15:29.786Z,100489.41
2022-10-24T14:18:02.316Z,100486.66
2022-10-24T14:20:30.871Z,100485.88
2022-10-24T14:22:57.707Z,100478.00
2022-10-24T14:25:25.725Z,100477.72
2022-10-24T14:27:54.654Z,100472.53
2022-10-24T14:30:24.658Z,100479.91
2022-10-24T14:33:04.829Z,100481.34
2022-10-24T14:35:31.436Z,100501.72
2022-10-24T14:37:58.093Z,100482.50
2022-10-24T14:40:24.675Z,100502.19
2022-10-24T14:42:51.816Z,100499.75
2022-10-24T14:45:29.583Z,100501.69
2022-10-24T14:47:58.724Z,100495.50
2022-10-24T14:50:43.937Z,100499.63
2022-10-24T14:53:22.595Z,100513.63
2022-10-24T14:55:54.203Z,100507.44
2022-10-24T14:58:31.751Z,100510.34
2022-10-24T15:00:59.085Z,100508.63
2022-10-24T15:03:27.397Z,100514.47
2022-10-24T15:06:18.511Z,100504.38
2022-10-24T15:08:48.373Z,100508.31
2022-10-24T15:11:24.946Z,100499.63
2022-10-24T15:14:06.316Z,100499.25
2022-10-24T15:16:38.667Z,100515.47
2022-10-24T15:19:07.424Z,100522.53
2022-10-24T15:21:39.213Z,100520.34
2022-10-24T15:24:06.189Z,100528.56
2022-10-24T15:26:40.608Z,100523.34
2022-10-24T15:29:13.239Z,100527.81
2022-10-24T15:31:42.144Z,100523.69
2022-10-24T15:34:10.474Z,100532.81
2022-10-24T15:36:40.363Z,100535.03
2022-10-24T15:39:13.936Z,100536.72
2022-10-24T15:41:40.430Z,100521.75
2022-10-24T15:44:14.453Z,100530.34
2022-10-24T15:46:41.540Z,100542.28
2022-10-24T15:49:08.061Z,100546.47
2022-10-24T15:51:37.558Z,100540.03
2022-10-24T15:54:04.113Z,100546.38
2022-10-24T15:56:30.508Z,100552.78
2022-10-24T15:58:56.999Z,100561.84
2022-10-24T16:01:32.364Z,100562.34
2022-10-24T16:04:00.634Z,100564.78
2022-10-24T16:06:27.208Z,100570.09
2022-10-24T16:08:54.043Z,100571.78
2022-10-24T16:11:21.011Z,100576.69
2022-10-24T16:13:47.964Z,100578.06
2022-10-24T16:16:14.640Z,100571.69
2022-10-24T16:18:41.076Z,100566.19
2022-10-24T16:21:07.808Z,100572.44
2022-10-24T16:23:34.562Z,100567.03
2022-10-24T16:26:01.056Z,100564.69
2022-10-24T16:28:28.817Z,100560.41
2022-10-24T16:30:55.266Z,100571.69
2022-10-24T16:33:22.513Z,100561.47
2022-10-24T16:35:49.121Z,100571.72
2022-10-24T16:38:15.934Z,100576.91
2022-10-24T16:40:45.035Z,100582.50
2022-10-24T16:43:13.423Z,100586.78
2022-10-24T16:45:40.225Z,100591.00
2022-10-24T16:48:06.821Z,100597.19
2022-10-24T16:50:33.274Z,100589.00
2022-10-24T16:53:04.742Z,100591.88
2022-10-24T16:55:31.542Z,100590.41
2022-10-24T16:57:58.621Z,100594.50
2022-10-24T17:00:25.778Z,100598.09
2022-10-24T17:02:53.972Z,100596.06
2022-10-24T17:05:22.877Z,100601.63
2022-10-24T17:07:49.857Z,100600.59
2022-10-24T17:10:19.481Z,100599.19
2022-10-24T17:12:48.659Z,100600.84
2022-10-24T17:15:18.092Z,100609.00
2022-10-24T17:17:47.923Z,100604.06
2022-10-24T17:20:14.786Z,100604.72
2022-10-24T17:22:42.897Z,100612.50
2022-10-24T17:25:17.653Z,100617.66
2022-10-24T17:27:44.641Z,100619.78
2022-10-24T17:30:17.540Z,100624.31
2022-10-24T17:32:44.292Z,100627.94
2022-10-24T17:35:13.509Z,100630.38
2022-10-24T17:37:46.568Z,100633.75
2022-10-24T17:40:16.605Z,100636.75
2022-10-24T17:42:45.741Z,100633.94
2022-10-24T17:45:21.082Z,100643.78
2022-10-24T17:47:48.676Z,100645.41
2022-10-24T17:50:15.771Z,100631.81
2022-10-24T17:52:43.517Z,100651.97
2022-10-24T17:55:45.009Z,100647.03
2022-10-24T17:58:11.635Z,100653.56
2022-10-24T18:00:38.101Z,100650.50
2022-10-24T18:03:04.604Z,100653.78
2022-10-24T18:05:32.715Z,100657.59
2022-10-24T18:07:59.149Z,100654.34
2022-10-24T18:10:25.887Z,100648.78
2022-10-24T18:12:52.459Z,100658.78
2022-10-24T18:15:20.053Z,100652.84
2022-10-24T18:17:46.954Z,100654.53
2022-10-24T18:20:15.546Z,100652.03
2022-10-24T18:22:43.288Z,100647.94
2022-10-24T18:25:11.520Z,100654.56
2022-10-24T18:27:38.011Z,100657.03
2022-10-24T18:30:05.815Z,100650.75
2022-10-24T18:32:32.731Z,100661.72
2022-10-24T18:34:59.287Z,100663.63
2022-10-24T18:37:25.925Z,100667.25
2022-10-24T18:39:53.464Z,100661.28
2022-10-24T18:42:30.529Z,100672.53
2022-10-24T18:44:57.334Z,100680.72
2022-10-24T18:47:25.718Z,100678.66
2022-10-24T18:49:52.943Z,100674.44
2022-10-24T18:52:50.619Z,100670.53
2022-10-24T18:55:22.364Z,100680.53
2022-10-24T18:57:49.873Z,100676.81
2022-10-24T19:00:22.100Z,100678.97
2022-10-24T19:03:08.866Z,100685.56
2022-10-24T19:05:37.924Z,100682.00
2022-10-24T19:08:13.650Z,100674.25
2022-10-24T19:10:40.164Z,100676.66
2022-10-24T19:13:06.665Z,100680.56
2022-10-24T19:15:33.295Z,100681.59
2022-10-24T19:17:59.725Z,100672.78
2022-10-24T19:20:26.906Z,100679.06
2022-10-24T19:22:54.100Z,100675.03
2022-10-24T19:25:20.582Z,100679.97
2022-10-24T19:27:49.265Z,100679.22
2022-10-24T19:30:16.791Z,100681.44
2022-10-24T19:32:43.477Z,100684.72
2022-10-24T19:35:10.131Z,100694.00
2022-10-24T19:37:37.415Z,100689.19
2022-10-24T19:40:04.763Z,100686.84
2022-10-24T19:42:31.360Z,100686.69
2022-10-24T19:44:57.924Z,100684.16
2022-10-24T19:47:24.359Z,100686.84
2022-10-24T19:49:50.902Z,100668.47
2022-10-24T19:52:17.336Z,100675.47
2022-10-24T19:54:44.204Z,100683.69
2022-10-24T19:57:11.744Z,100694.44
2022-10-24T19:59:38.242Z,100705.16
2022-10-24T20:02:04.999Z,100698.44
2022-10-24T20:04:31.505Z,100693.94
2022-10-24T20:06:58.108Z,100701.66
2022-10-24T20:09:24.555Z,100707.81
2022-10-24T20:11:51.016Z,100706.75
2022-10-24T20:14:17.528Z,100713.94
2022-10-24T20:16:43.931Z,100715.28
2022-10-24T20:19:10.378Z,100710.50
2022-10-24T20:21:37.762Z,100710.66
2022-10-24T20:24:04.564Z,100719.00
2022-10-24T20:26:31.380Z,100710.31
2022-10-24T20:28:58.122Z,100714.78
2022-10-24T20:31:29.564Z,100717.16
2022-10-24T20:34:06.757Z,100722.81
2022-10-24T20:36:35.786Z,100726.94
2022-10-24T20:39:02.345Z,100724.72
2022-10-24T20:41:29.337Z,100732.31
2022-10-24T20:43:56.251Z,100721.56
2022-10-24T20:46:22.940Z,100740.38
2022-10-24T20:48:49.402Z,100731.72
2022-10-24T20:51:18.096Z,100736.78
2022-10-24T20:53:45.015Z,100742.44
2022-10-24T20:56:13.859Z,100738.84
2022-10-24T20:58:42.442Z,100748.69
2022-10-24T21:01:17.706Z,100741.84
2022-10-24T21:03:44.507Z,100746.41
2022-10-24T21:06:28.519Z,100744.59
2022-10-24T21:08:57.244Z,100747.72
2022-10-24T21:11:27.762Z,100748.28
2022-10-24T21:13:56.879Z,100749.38
2022-10-24T21:16:23.481Z,100749.78
2022-10-24T21:18:49.956Z,100760.97
2022-10-24T21:21:17.170Z,100761.22
2022-10-24T21:23:44.154Z,100763.81
2022-10-24T21:26:12.958Z,100770.44
2022-10-24T21:28:40.028Z,100763.19
2022-10-24T21:31:08.496Z,100773.63
2022-10-24T21:33:35.590Z,100781.66
2022-10-24T21:36:07.061Z,100782.88
2022-10-24T21:38:33.645Z,100785.47
2022-10-24T21:41:04.636Z,100783.28
2022-10-24T21:43:35.868Z,100783.88
2022-10-24T21:46:09.436Z,100789.81
2022-10-24T21:48:36.244Z,100794.28
2022-10-24T21:51:17.428Z,100786.59
2022-10-24T21:53:46.233Z,100779.00
2022-10-24T21:56:15.734Z,100785.13
2022-10-24T21:58:49.204Z,100795.00
2022-10-24T22:01:18.330Z,100781.06
2022-10-24T22:03:45.035Z,100784.72
2022-10-24T22:06:12.992Z,100784.63
2022-10-24T22:08:39.793Z,100792.22
2022-10-24T22:11:11.954Z,100785.59
2022-10-24T22:13:38.892Z,100789.56
2022-10-24T22:16:06.617Z,100797.94
2022-10-24T22:18:33.808Z,100794.19
2022-10-24T22:21:01.624Z,100786.59
2022-10-24T22:23:28.805Z,100788.94
2022-10-24T22:25:55.563Z,100798.06
2022-10-24T22:28:22.076Z,100791.34
2022-10-24T22:30:48.725Z,100806.72
2022-10-24T22:33:35.848Z,100801.03
2022-10-24T22:36:23.658Z,100810.22
2022-10-24T22:38:54.049Z,100808.56
2022-10-24T22:41:21.870Z,100799.09
2022-10-24T22:43:48.857Z,100804.31
2022-10-24T22:46:53.287Z,100822.00
2022-10-24T22:49:44.589Z,100820.50
2022-10-24T22:52:11.955Z,100810.22
2022-10-24T22:54:39.066Z,100815.25
2022-10-24T22:57:06.542Z,100815.56
2022-10-24T22:59:33.900Z,100811.53
2022-10-24T23:02:03.396Z,100825.06
2022-10-24T23:04:39.125Z,100822.88
2022-10-24T23:07:17.739Z,100828.97
2022-10-24T23:09:44.157Z,100824.41
2022-10-24T23:12:14.014Z,100823.53
2022-10-24T23:14:40.814Z,100828.00
2022-10-24T23:17:07.394Z,100831.66
2022-10-24T23:19:34.798Z,100832.28
2022-10-24T23:22:04.334Z,100826.69
2022-10-24T23:24:31.099Z,100835.47
2022-10-24T23:27:12.830Z,100838.34
2022-10-24T23:29:44.493Z,100837.94
2022-10-24T23:32:29.192Z,100840.81
2022-10-24T23:34:56.328Z,100851.56
2022-10-24T23:37:38.561Z,100837.06
2022-10-24T23:40:19.759Z,100849.97
2022-10-24T23:42:48.092Z,100845.22
2022-10-24T23:45:17.419Z,100842.69
2022-10-24T23:47:47.607Z,100844.44
2022-10-24T23:50:32.148Z,100850.16
2022-10-24T23:53:04.868Z,100844.44
2022-10-24T23:55:31.644Z,100847.13
2022-10-24T23:57:58.097Z,100845.03
